(°C)
12°
13°
14°
14°
15°
15°
15°
(°C)
ÉK
ÉK
ÉK
ÉK
ÉK
ÉK
ÉK
(km/h)
22-28
22-30
21-30
20-28
19-28
19-29
20-27
(mm)
0
0
0
0
0
0
0
(%)
0
0
0
0
0
0
0

Napfelkelte

/ 41.1°
sun-icon
UV 4
06:11
19:45
Hold (növő sarló) (59°)
09:05
00:12

METAR 44.1°É 15.3°K (LDZD)-ért

Idő Feltételek Hőmérséklet/
Harmatpont
Szél Látási viszonyok Időjárás Felhők Légnyomás Módosítás Nyers
VFR 12°C / -5°C 40º variable 360º to 070º 13kt >10km - Few Clouds 6000ft 1013 No Significant change LDZD 170800Z 04013KT 360V070 9999 FEW060 12/M05 Q1013 NOSIG
VFR 12°C / -3°C 40º variable 010º to 070º 10kt >10km - Few Clouds 6000ft 1014 No Significant change LDZD 170730Z 04010KT 010V070 9999 FEW060 12/M03 Q1014 NOSIG
VFR 10°C / -4°C 50º 10kt >10km - Few Clouds 6000ft 1014 No Significant change LDZD 170700Z 05010KT 9999 FEW060 10/M04 Q1014 NOSIG
VFR 9°C / -4°C 40º 8kt >10km - Few Clouds 5000ft 1014 No Significant change LDZD 170630Z 04008KT 9999 FEW050 09/M04 Q1014 NOSIG
VFR 8°C / -4°C 40º variable 010º to 070º 8kt >10km - Scattered Clouds 6000ft 1014 No Significant change LDZD 170600Z 04008KT 010V070 9999 SCT060 08/M04 Q1014 NOSIG
VFR 8°C / -5°C 60º variable 030º to 090º 6kt >10km - Scattered Clouds 6000ft 1014 No Significant change LDZD 170530Z 06006KT 030V090 9999 SCT060 08/M05 Q1014 NOSIG
VFR 8°C / -5°C 70º variable 040º to 100º 10kt >10km - Scattered Clouds 6000ft 1014 No Significant change LDZD 170500Z 07010KT 040V100 9999 SCT060 08/M05 Q1014 NOSIG
VFR 8°C / -5°C 50º 7kt >10km - Scattered Clouds 6000ft 1014 No Significant change LDZD 170430Z 05007KT 9999 SCT060 08/M05 Q1014 NOSIG
VFR 8°C / -5°C 60º variable 020º to 090º 10kt >10km - Scattered Clouds 6000ft 1014 No Significant change LDZD 170400Z 06010KT 020V090 9999 SCT060 08/M05 Q1014 NOSIG
VFR 8°C / -5°C 40º 8kt >10km - Clouds and Visibility OK 1014 - LDZD 170330Z 04008KT CAVOK 08/M05 Q1014
VFR 8°C / -4°C 70º variable 030º to 100º 6kt >10km - Clouds and Visibility OK 1014 - LDZD 170300Z 07006KT 030V100 CAVOK 08/M04 Q1014
VFR 8°C / -5°C variable 2kt >10km - Clouds and Visibility OK 1014 - LDZD 170230Z VRB02KT CAVOK 08/M05 Q1014
VFR 8°C / -5°C variable 0kt >10km - Clouds and Visibility OK 1014 - LDZD 170200Z 00000KT CAVOK 08/M05 Q1014
VFR 8°C / -4°C 40º 6kt >10km - Clouds and Visibility OK 1015 - LDZD 170130Z 04006KT CAVOK 08/M04 Q1015
VFR 9°C / -4°C 50º variable 010º to 080º 4kt >10km - Clouds and Visibility OK 1015 - LDZD 170100Z 05004KT 010V080 CAVOK 09/M04 Q1015
VFR 9°C / -4°C 60º 8kt >10km - Clouds and Visibility OK 1015 - LDZD 170030Z 06008KT CAVOK 09/M04 Q1015
VFR 8°C / -4°C 60º 7kt >10km - Clouds and Visibility OK 1015 - LDZD 170000Z 06007KT CAVOK 08/M04 Q1015
VFR 8°C / -3°C 60º 9kt >10km - Clouds and Visibility OK 1016 - LDZD 162330Z 06009KT CAVOK 08/M03 Q1016
VFR 8°C / -4°C 60º 8kt >10km - Clouds and Visibility OK 1016 - LDZD 162300Z 06008KT CAVOK 08/M04 Q1016
VFR 9°C / -4°C 70º variable 040º to 110º 7kt >10km - Clouds and Visibility OK 1016 - LDZD 162230Z 07007KT 040V110 CAVOK 09/M04 Q1016
VFR 9°C / -3°C 60º 8kt >10km - Clouds and Visibility OK 1017 - LDZD 162200Z 06008KT CAVOK 09/M03 Q1017
VFR 9°C / -3°C 40º 7kt >10km - Clouds and Visibility OK 1017 - LDZD 162130Z 04007KT CAVOK 09/M03 Q1017
VFR 9°C / -3°C 60º variable 040º to 100º 8kt >10km - Clouds and Visibility OK 1017 - LDZD 162100Z 06008KT 040V100 CAVOK 09/M03 Q1017
VFR 8°C / -3°C 50º variable 020º to 080º 6kt >10km - Clouds and Visibility OK 1017 - LDZD 162030Z 05006KT 020V080 CAVOK 08/M03 Q1017

VFR

12°C / -5°C

[Több]
Szél 40º variable 360º to 070º 13kt
Látási viszonyok >10km
Időjárás -
Felhők Few Clouds 6000ft
Légnyomás 1013
Módosítás No Significant change
Nyers LDZD 170800Z 04013KT 360V070 9999 FEW060 12/M05 Q1013 NOSIG

VFR

12°C / -3°C

[Több]
Szél 40º variable 010º to 070º 10kt
Látási viszonyok >10km
Időjárás -
Felhők Few Clouds 6000ft
Légnyomás 1014
Módosítás No Significant change
Nyers LDZD 170730Z 04010KT 010V070 9999 FEW060 12/M03 Q1014 NOSIG

VFR

10°C / -4°C

[Több]
Szél 50º 10kt
Látási viszonyok >10km
Időjárás -
Felhők Few Clouds 6000ft
Légnyomás 1014
Módosítás No Significant change
Nyers LDZD 170700Z 05010KT 9999 FEW060 10/M04 Q1014 NOSIG

VFR

9°C / -4°C

[Több]
Szél 40º 8kt
Látási viszonyok >10km
Időjárás -
Felhők Few Clouds 5000ft
Légnyomás 1014
Módosítás No Significant change
Nyers LDZD 170630Z 04008KT 9999 FEW050 09/M04 Q1014 NOSIG

VFR

8°C / -4°C

[Több]
Szél 40º variable 010º to 070º 8kt
Látási viszonyok >10km
Időjárás -
Felhők Scattered Clouds 6000ft
Légnyomás 1014
Módosítás No Significant change
Nyers LDZD 170600Z 04008KT 010V070 9999 SCT060 08/M04 Q1014 NOSIG

VFR

8°C / -5°C

[Több]
Szél 60º variable 030º to 090º 6kt
Látási viszonyok >10km
Időjárás -
Felhők Scattered Clouds 6000ft
Légnyomás 1014
Módosítás No Significant change
Nyers LDZD 170530Z 06006KT 030V090 9999 SCT060 08/M05 Q1014 NOSIG

VFR

8°C / -5°C

[Több]
Szél 70º variable 040º to 100º 10kt
Látási viszonyok >10km
Időjárás -
Felhők Scattered Clouds 6000ft
Légnyomás 1014
Módosítás No Significant change
Nyers LDZD 170500Z 07010KT 040V100 9999 SCT060 08/M05 Q1014 NOSIG

VFR

8°C / -5°C

[Több]
Szél 50º 7kt
Látási viszonyok >10km
Időjárás -
Felhők Scattered Clouds 6000ft
Légnyomás 1014
Módosítás No Significant change
Nyers LDZD 170430Z 05007KT 9999 SCT060 08/M05 Q1014 NOSIG

VFR

8°C / -5°C

[Több]
Szél 60º variable 020º to 090º 10kt
Látási viszonyok >10km
Időjárás -
Felhők Scattered Clouds 6000ft
Légnyomás 1014
Módosítás No Significant change
Nyers LDZD 170400Z 06010KT 020V090 9999 SCT060 08/M05 Q1014 NOSIG

VFR

8°C / -5°C

[Több]
Szél 40º 8kt
Látási viszonyok >10km
Időjárás -
Felhők Clouds and Visibility OK
Légnyomás 1014
Módosítás -
Nyers LDZD 170330Z 04008KT CAVOK 08/M05 Q1014

VFR

8°C / -4°C

[Több]
Szél 70º variable 030º to 100º 6kt
Látási viszonyok >10km
Időjárás -
Felhők Clouds and Visibility OK
Légnyomás 1014
Módosítás -
Nyers LDZD 170300Z 07006KT 030V100 CAVOK 08/M04 Q1014

VFR

8°C / -5°C

[Több]
Szél variable 2kt
Látási viszonyok >10km
Időjárás -
Felhők Clouds and Visibility OK
Légnyomás 1014
Módosítás -
Nyers LDZD 170230Z VRB02KT CAVOK 08/M05 Q1014

VFR

8°C / -5°C

[Több]
Szél variable 0kt
Látási viszonyok >10km
Időjárás -
Felhők Clouds and Visibility OK
Légnyomás 1014
Módosítás -
Nyers LDZD 170200Z 00000KT CAVOK 08/M05 Q1014

VFR

8°C / -4°C

[Több]
Szél 40º 6kt
Látási viszonyok >10km
Időjárás -
Felhők Clouds and Visibility OK
Légnyomás 1015
Módosítás -
Nyers LDZD 170130Z 04006KT CAVOK 08/M04 Q1015

VFR

9°C / -4°C

[Több]
Szél 50º variable 010º to 080º 4kt
Látási viszonyok >10km
Időjárás -
Felhők Clouds and Visibility OK
Légnyomás 1015
Módosítás -
Nyers LDZD 170100Z 05004KT 010V080 CAVOK 09/M04 Q1015

VFR

9°C / -4°C

[Több]
Szél 60º 8kt
Látási viszonyok >10km
Időjárás -
Felhők Clouds and Visibility OK
Légnyomás 1015
Módosítás -
Nyers LDZD 170030Z 06008KT CAVOK 09/M04 Q1015

VFR

8°C / -4°C

[Több]
Szél 60º 7kt
Látási viszonyok >10km
Időjárás -
Felhők Clouds and Visibility OK
Légnyomás 1015
Módosítás -
Nyers LDZD 170000Z 06007KT CAVOK 08/M04 Q1015

VFR

8°C / -3°C

[Több]
Szél 60º 9kt
Látási viszonyok >10km
Időjárás -
Felhők Clouds and Visibility OK
Légnyomás 1016
Módosítás -
Nyers LDZD 162330Z 06009KT CAVOK 08/M03 Q1016

VFR

8°C / -4°C

[Több]
Szél 60º 8kt
Látási viszonyok >10km
Időjárás -
Felhők Clouds and Visibility OK
Légnyomás 1016
Módosítás -
Nyers LDZD 162300Z 06008KT CAVOK 08/M04 Q1016

VFR

9°C / -4°C

[Több]
Szél 70º variable 040º to 110º 7kt
Látási viszonyok >10km
Időjárás -
Felhők Clouds and Visibility OK
Légnyomás 1016
Módosítás -
Nyers LDZD 162230Z 07007KT 040V110 CAVOK 09/M04 Q1016

VFR

9°C / -3°C

[Több]
Szél 60º 8kt
Látási viszonyok >10km
Időjárás -
Felhők Clouds and Visibility OK
Légnyomás 1017
Módosítás -
Nyers LDZD 162200Z 06008KT CAVOK 09/M03 Q1017

VFR

9°C / -3°C

[Több]
Szél 40º 7kt
Látási viszonyok >10km
Időjárás -
Felhők Clouds and Visibility OK
Légnyomás 1017
Módosítás -
Nyers LDZD 162130Z 04007KT CAVOK 09/M03 Q1017

VFR

9°C / -3°C

[Több]
Szél 60º variable 040º to 100º 8kt
Látási viszonyok >10km
Időjárás -
Felhők Clouds and Visibility OK
Légnyomás 1017
Módosítás -
Nyers LDZD 162100Z 06008KT 040V100 CAVOK 09/M03 Q1017

VFR

8°C / -3°C

[Több]
Szél 50º variable 020º to 080º 6kt
Látási viszonyok >10km
Időjárás -
Felhők Clouds and Visibility OK
Légnyomás 1017
Módosítás -
Nyers LDZD 162030Z 05006KT 020V080 CAVOK 08/M03 Q1017

TAF 44.1°É 15.3°K (LDZD)-ért

From till


Maximum Temperature 15ºC on . Minimum Temperature 6ºC on .
From till Wind 60º 8kt. Visibility 10km or more. Nil Significant Cloud.
Temporarly from till Wind 60º 14kt.

Nyers: TAF LDZD 170525Z 1706/1806 06008KT CAVOK TX15/1713Z TN06/1804Z TEMPO 1708/1722 06014KT

Aktuális műholdas és esőképek ezen a helyen: 44.1°É 15.3°K

  • Csapadék:
  • <1 mm
  • 1-2 mm
  • 2-5 mm
  • >5 mm

A helyszín jelölő a következő helyen van elhelyezve: 44.1°É 15.3°K. [Több]

A valós idejű műholdas kép ötvözi a nappali látható fényt az éjszakai infravörös sugárzással. Éjjel a kép nem sötét, mivel az infravörös sugárzás képes érzékelni a hőmérséklet-különbségeket. Sajnos az alacsony felhőket és a ködöt nehéz megkülönböztetni a talaj hőmérsékletétől, így az éjszaka folyamán szinte láthatatlanok lehetnek. A Meteosat európai műholdképei valós időben frissülnek minden 5 percben. A GOES-16/GOES-17 (Észak- és Dél-Amerika) és Himawari (Ázsia) képei 10 percenként frissülnek.

A csapadékot radarok és műholdak segítségével határozzák meg. A műholdak által mért éjjeli csapadék becslése kevésbé pontos, mint a nappali. A narancssárga keresztek jelölik azokat a helyeket, ahol villámlás észlelhető (Európa felett).

Minden jog fenntartva 2021 EUMETSAT / meteoblue. nowcast által biztosított villámlással kapcsolatos adatok.